• Join FlightAware (Why Join?)
  • Login
  • US Flag 
05:08PM EDT


 

Airport Tracker/Info


-or-


 

Live Flight TrackerFlight Track Log ✈ EJA831 ✈ 26-Apr-2013 ✈ KHPN - KACK

Flight Track Log - Related Links

Times and Time Zones

All times are in EDT time to prevent confusion due to time zone crossing. See the EJA831 flight status page for this flight to view local times or setup timezone preferences in your user account.

Time Position Orientation Groundspeed Altitude Reporting Facility
EDT Latitude Longitude Course Direction KTS MPH feet Rate Location/Type
06:28PM 41.1000 -73.7833 270° West 189 217 3,000  Level New York TRACON
06:29PM 41.1000 -73.8500 270° West 205 236 3,500 1,500 Climbing New York TRACON
06:30PM 41.1167 -73.9333 285° West 243 280 6,100 2,880 Climbing New York TRACON
06:31PM 41.1333 -74.0167 285° West 249 287 9,300 2,400 Climbing New York TRACON
06:32PM 41.2167 -73.9833 17° North 309 356 11,000 840 Climbing New York TRACON
06:33PM 41.2333 -73.8667 79° East 332 382 11,000 420 Level New York TRACON
06:34PM 41.2333 -73.7500 90° East 343 395 11,900 540 Climbing New York TRACON
06:36PM 41.2533 -73.4892 84° East 377 434 12,700 660 Climbing Boston Center
06:37PM 41.2631 -73.3431 85° East 365 420 14,000 1,500 Climbing Boston Center
06:38PM 41.2744 -73.2078 84° East 365 420 15,700 1,500 Climbing Boston Center
06:39PM 41.2817 -73.0753 86° East 385 443 17,000 600 Climbing Boston Center
06:40PM 41.2906 -72.9181 86° East 391 450 17,000  Level Boston Center
06:41PM 41.2975 -72.7856 86° East 391 450 17,000  Level Boston Center
06:42PM 41.3042 -72.6253 87° East 391 450 17,000  Level Boston Center
06:43PM 41.3106 -72.4953 86° East 391 450 17,000  Level Boston Center
06:44PM 41.3167 -72.3350 87° East 386 444 17,000  Level Boston Center
06:45PM 41.3247 -72.2025 85° East 391 450 17,000  Level Boston Center
06:46PM 41.3328 -72.0447 86° East 391 450 17,000  Level Boston Center
06:47PM 41.3383 -71.9147 87° East 385 443 17,000  Level Boston Center
06:48PM 41.3458 -71.7572 86° East 385 443 17,000  Level Boston Center
06:49PM 41.3533 -71.6244 86° East 385 443 17,000 -300 Level Boston Center
06:50PM 41.3606 -71.4667 86° East 385 443 16,500 -960 Descending Boston Center
06:51PM 41.3261 -71.3511 112° Southeast 368 423 15,100 -1,500 Descending Boston Center
06:52PM 41.2683 -71.2194 120° Southeast 368 423 13,500 -1,500 Descending Boston Center
06:53PM 41.2236 -71.1181 120° Southeast 368 423 12,100 -1,260 Descending Boston Center
06:54PM 41.1742 -70.9950 118° Southeast 349 402 11,000 -600 Descending Boston Center
06:55PM 41.1331 -70.8914 118° Southeast 343 395 11,000 -480 Level Boston Center
06:56PM 41.1169 -70.7758 100° East 337 388 10,100 -1,320 Descending Boston Center
06:57PM 41.1114 -70.6908 95° East 315 362 8,400 -2,100 Descending Boston Center
06:58PM 41.0989 -70.5669 98° East 291 335 6,000 -2,220 Descending Boston Center
06:59PM 41.0911 -70.4681 96° East 280 322 4,000 -1,500 Descending Boston Center
07:00PM 41.0850 -70.3692 95° East 273 314 3,000 -600 Descending Boston Center
07:01PM 41.0939 -70.2808 82° East 260 299 2,800 -480 Descending Boston Center
07:02PM 41.1406 -70.2186 45° Northeast 224 258 2,100 -600 Descending Boston Center
07:03PM 41.1792 -70.1675 45° Northeast 210 242 1,700 -540 Descending Boston Center
07:04PM 41.2033 -70.1336 47° Northeast 162 186 1,100 -600 Descending Boston Center
07:05PM 41.2258 -70.1081 41° Northeast 123 142 600 4,920 Descending Boston Center
07:06PM 41.2461 -70.0769 49° Northeast 106 122 11,000 5,160 Climbing Boston Center
07:07PM 41.2683 -70.0456 47° Northeast 106 122 11,000  Level Boston Center
07:08PM 41.2886 -70.0172 46° Northeast 106 122 11,000  Level Boston Center